Time;durP1;ratioP1;P1;durP2;ratioP2;P2;SDS_P1;SDS_P2;PMS_P1;PMS_P2;Temp;Humidity;BMP_temperature;BMP_pressure;BME280_temperature;BME280_humidity;BME280_pressure;Samples;Min_cycle;Max_cycle;Signal;HPM_P1;HPM_P2
2022/02/05 00:00:42;;;;;;;12.50;1.52;;;;;;;;;;4966504;28;20538;-50
2022/02/05 00:03:22;;;;;;;4.70;1.45;;;;;;;;;;4970672;28;20061;-52
2022/02/05 00:43:10;;;;;;;13.25;2.05;;;;;;;;;;4965110;28;20030;-52
2022/02/05 00:45:39;;;;;;;7.32;1.38;;;;;;;;;;4966109;28;20460;-51
2022/02/05 00:48:06;;;;;;;7.20;1.08;;;;;;;;;;4961995;28;20433;-51
2022/02/05 00:50:34;;;;;;;3.78;0.90;;;;;;;;;;4974255;28;20516;-48
2022/02/05 00:53:12;;;;;;;8.32;1.40;;;;;;;;;;4962676;28;20037;-54
2022/02/05 00:55:41;;;;;;;8.55;1.40;;;;;;;;;;4963067;28;20055;-53
2022/02/05 00:58:07;;;;;;;8.95;0.98;;;;;;;;;;4963641;28;20199;-52
2022/02/05 01:00:36;;;;;;;18.15;1.42;;;;;;;;;;4961083;28;20490;-53
2022/02/05 01:03:02;;;;;;;2.30;0.93;;;;;;;;;;4962595;28;20035;-52
2022/02/05 01:05:28;;;;;;;7.75;1.52;;;;;;;;;;4965630;28;20155;-52
2022/02/05 01:07:58;;;;;;;15.43;1.65;;;;;;;;;;4963348;28;20518;-48
2022/02/05 01:10:24;;;;;;;10.30;1.35;;;;;;;;;;4961098;28;20224;-52
2022/02/05 01:12:55;;;;;;;10.70;1.38;;;;;;;;;;4960972;28;20061;-51
2022/02/05 01:15:25;;;;;;;8.02;1.20;;;;;;;;;;4958071;28;20030;-51
2022/02/05 01:18:00;;;;;;;14.75;0.75;;;;;;;;;;4990168;28;20183;-48
2022/02/05 01:22:52;;;;;;;13.63;1.30;;;;;;;;;;4961613;28;20383;-52
2022/02/05 01:25:23;;;;;;;13.63;1.20;;;;;;;;;;4991566;28;20081;-51
2022/02/05 01:27:54;;;;;;;12.50;1.20;;;;;;;;;;4961336;28;20066;-52
2022/02/05 01:30:31;;;;;;;8.55;1.05;;;;;;;;;;4959965;28;20042;-53
2022/02/05 01:54:31;;;;;;;15.35;2.30;;;;;;;;;;4963867;28;20600;-51
2022/02/05 01:57:06;;;;;;;23.00;2.53;;;;;;;;;;4966696;28;20260;-51
2022/02/05 02:04:47;;;;;;;14.80;3.03;;;;;;;;;;4963493;28;20039;-52
2022/02/05 02:05:34;;;;;;;16.80;1.27;;;;;;;;;;4965200;28;20064;-49
2022/02/05 02:19:22;;;;;;;10.32;1.10;;;;;;;;;;4976160;28;20420;-50
2022/02/05 02:21:57;;;;;;;14.00;1.52;;;;;;;;;;4970167;28;20374;-52
2022/02/05 02:25:21;;;;;;;8.57;1.52;;;;;;;;;;4964328;28;20043;-52
2022/02/05 02:27:34;;;;;;;12.05;1.27;;;;;;;;;;4970102;28;20035;-52
2022/02/05 02:30:21;;;;;;;6.03;0.98;;;;;;;;;;4968404;28;20424;-52
2022/02/05 02:32:52;;;;;;;16.33;1.35;;;;;;;;;;4965431;28;20038;-52
2022/02/05 02:35:23;;;;;;;8.90;1.50;;;;;;;;;;4964246;28;20510;-52
2022/02/05 02:38:12;;;;;;;5.57;1.52;;;;;;;;;;4961178;28;20747;-52
2022/02/05 02:40:56;;;;;;;4.22;0.90;;;;;;;;;;4965877;28;21979;-49
2022/02/05 02:43:25;;;;;;;11.88;2.25;;;;;;;;;;4961771;28;20031;-51
2022/02/05 02:45:51;;;;;;;11.30;1.50;;;;;;;;;;4955982;28;20039;-48
2022/02/05 02:48:17;;;;;;;9.20;1.10;;;;;;;;;;4961910;28;20486;-49
2022/02/05 02:56:45;;;;;;;15.93;1.80;;;;;;;;;;4966167;28;20142;-48
2022/02/05 03:00:12;;;;;;;7.57;0.55;;;;;;;;;;4963884;28;20045;-48
2022/02/05 03:02:13;;;;;;;12.55;2.08;;;;;;;;;;4964849;28;20059;-48
2022/02/05 03:04:38;;;;;;;10.75;1.60;;;;;;;;;;4967675;28;20034;-49
2022/02/05 03:07:05;;;;;;;13.82;1.63;;;;;;;;;;4966149;28;20038;-48
2022/02/05 03:09:30;;;;;;;17.25;2.15;;;;;;;;;;4965298;28;20034;-52
2022/02/05 03:11:56;;;;;;;13.93;1.98;;;;;;;;;;4963154;28;20026;-51
2022/02/05 03:14:22;;;;;;;9.52;1.77;;;;;;;;;;4968023;28;20034;-50
2022/02/05 03:16:51;;;;;;;16.75;1.80;;;;;;;;;;4959511;28;20475;-54
2022/02/05 03:19:17;;;;;;;16.50;1.77;;;;;;;;;;4962358;28;20026;-53
2022/02/05 03:21:43;;;;;;;17.95;1.85;;;;;;;;;;4963501;28;20073;-52
2022/02/05 03:24:09;;;;;;;15.10;1.52;;;;;;;;;;4968213;28;20124;-49
2022/02/05 03:26:36;;;;;;;12.75;1.67;;;;;;;;;;4962707;28;20042;-50
2022/02/05 03:29:05;;;;;;;14.82;1.38;;;;;;;;;;4966713;28;20494;-50
2022/02/05 03:31:30;;;;;;;6.75;1.08;;;;;;;;;;4967090;28;20027;-52
2022/02/05 03:33:56;;;;;;;5.20;1.27;;;;;;;;;;4965655;28;20371;-51
2022/02/05 03:36:22;;;;;;;5.70;0.82;;;;;;;;;;4967981;28;20037;-53
2022/02/05 03:38:47;;;;;;;10.05;1.30;;;;;;;;;;4963314;28;20081;-52
2022/02/05 03:41:13;;;;;;;13.90;1.30;;;;;;;;;;4964474;28;20521;-52
2022/02/05 03:43:38;;;;;;;7.88;1.00;;;;;;;;;;4966552;28;20173;-52
2022/02/05 03:46:04;;;;;;;8.05;1.17;;;;;;;;;;4962981;28;20563;-52
2022/02/05 03:48:29;;;;;;;19.67;2.65;;;;;;;;;;4961430;28;20041;-53
2022/02/05 03:50:55;;;;;;;7.38;0.52;;;;;;;;;;4965594;28;20411;-54
2022/02/05 03:53:20;;;;;;;10.38;1.58;;;;;;;;;;4968919;28;20526;-50
2022/02/05 03:55:46;;;;;;;7.30;1.40;;;;;;;;;;4963135;28;20118;-53
2022/02/05 03:58:13;;;;;;;14.63;2.13;;;;;;;;;;4959489;28;20046;-53
2022/02/05 04:00:38;;;;;;;36.40;2.63;;;;;;;;;;4961406;28;20094;-50
2022/02/05 04:03:05;;;;;;;3.55;0.80;;;;;;;;;;4964648;28;20129;-52
2022/02/05 04:05:31;;;;;;;20.83;2.08;;;;;;;;;;4963852;28;20023;-53
2022/02/05 04:07:57;;;;;;;19.00;2.05;;;;;;;;;;4996573;28;20044;-51
2022/02/05 04:10:29;;;;;;;10.95;1.70;;;;;;;;;;4961533;28;20030;-49
2022/02/05 04:18:40;;;;;;;10.93;2.33;;;;;;;;;;4980549;28;20641;-52
2022/02/05 04:21:06;;;;;;;7.80;1.02;;;;;;;;;;4966213;28;20410;-51
2022/02/05 04:23:32;;;;;;;15.85;1.30;;;;;;;;;;4962739;28;20527;-51
2022/02/05 04:25:58;;;;;;;7.78;1.20;;;;;;;;;;4970539;28;20038;-52
2022/02/05 04:28:23;;;;;;;24.73;1.92;;;;;;;;;;4993752;28;20122;-54
2022/02/05 04:30:49;;;;;;;8.63;1.38;;;;;;;;;;4959038;28;20034;-54
2022/02/05 04:33:14;;;;;;;8.77;1.13;;;;;;;;;;4964763;28;20062;-53
2022/02/05 04:35:43;;;;;;;7.97;2.22;;;;;;;;;;4990236;28;20038;-53
2022/02/05 04:38:09;;;;;;;20.30;3.55;;;;;;;;;;4959220;28;20799;-50
2022/02/05 04:40:44;;;;;;;10.15;1.70;;;;;;;;;;4963433;28;20038;-50
2022/02/05 05:04:55;;;;;;;5.70;0.82;;;;;;;;;;4962690;28;20027;-53
2022/02/05 05:12:50;;;;;;;13.73;1.40;;;;;;;;;;4964241;28;20618;-52
2022/02/05 05:20:28;;;;;;;5.78;2.08;;;;;;;;;;4961415;28;20046;-54
2022/02/05 05:22:53;;;;;;;7.45;1.42;;;;;;;;;;4960615;28;20030;-52
2022/02/05 05:25:19;;;;;;;9.60;1.08;;;;;;;;;;4965893;28;20097;-53
2022/02/05 05:27:45;;;;;;;9.90;1.77;;;;;;;;;;4963536;28;20402;-54
2022/02/05 05:30:11;;;;;;;15.77;1.92;;;;;;;;;;4997762;28;20093;-53
2022/02/05 05:32:37;;;;;;;16.00;1.80;;;;;;;;;;4958124;28;20037;-54
2022/02/05 05:35:04;;;;;;;12.65;2.22;;;;;;;;;;4961937;28;20506;-53
2022/02/05 05:37:30;;;;;;;8.70;1.50;;;;;;;;;;4960351;28;20035;-52
2022/02/05 05:39:55;;;;;;;16.58;2.25;;;;;;;;;;4959777;28;20041;-53
2022/02/05 05:42:28;;;;;;;8.05;1.25;;;;;;;;;;4964589;28;20037;-53
2022/02/05 05:47:51;;;;;;;11.43;1.65;;;;;;;;;;4964243;28;20077;-51
2022/02/05 05:53:03;;;;;;;18.05;2.08;;;;;;;;;;4960143;28;20050;-52
2022/02/05 05:55:29;;;;;;;31.65;2.13;;;;;;;;;;4965358;28;20034;-53
2022/02/05 05:57:56;;;;;;;17.63;1.63;;;;;;;;;;4961455;28;20030;-50
2022/02/05 06:00:21;;;;;;;15.45;1.75;;;;;;;;;;4961126;28;20565;-53
2022/02/05 06:02:47;;;;;;;13.20;1.83;;;;;;;;;;4966555;28;20042;-54
2022/02/05 06:05:13;;;;;;;12.45;1.73;;;;;;;;;;4963107;28;20540;-52
2022/02/05 06:07:39;;;;;;;14.60;1.92;;;;;;;;;;4960619;28;20138;-50
2022/02/05 06:10:05;;;;;;;10.95;1.10;;;;;;;;;;4960397;28;20039;-50
2022/02/05 06:12:30;;;;;;;18.88;1.67;;;;;;;;;;4963633;28;20019;-52
2022/02/05 06:14:58;;;;;;;11.10;1.80;;;;;;;;;;4969547;28;20045;-53
2022/02/05 06:17:25;;;;;;;9.75;1.40;;;;;;;;;;4962477;28;20536;-53
2022/02/05 06:19:51;;;;;;;14.75;1.52;;;;;;;;;;4963719;28;20082;-53
2022/02/05 06:22:17;;;;;;;12.73;1.70;;;;;;;;;;4960396;28;20043;-53
2022/02/05 06:24:42;;;;;;;9.48;0.85;;;;;;;;;;4962656;28;20038;-50
2022/02/05 06:27:08;;;;;;;11.32;1.88;;;;;;;;;;4960990;28;20039;-53
2022/02/05 06:29:34;;;;;;;12.77;1.35;;;;;;;;;;4961827;28;20031;-53
2022/02/05 06:32:00;;;;;;;12.95;0.90;;;;;;;;;;4962607;28;20042;-53
2022/02/05 06:34:26;;;;;;;10.57;1.17;;;;;;;;;;4963518;28;20530;-52
2022/02/05 06:36:52;;;;;;;11.27;1.00;;;;;;;;;;4968368;28;20038;-53
2022/02/05 06:39:17;;;;;;;8.23;1.52;;;;;;;;;;4967988;28;20080;-52
2022/02/05 06:41:43;;;;;;;17.02;1.70;;;;;;;;;;4965118;28;20097;-50
2022/02/05 06:44:09;;;;;;;6.18;1.30;;;;;;;;;;4965875;28;20157;-49
2022/02/05 06:46:34;;;;;;;11.07;1.02;;;;;;;;;;4964301;28;20387;-52
2022/02/05 06:49:00;;;;;;;9.43;1.10;;;;;;;;;;4965817;28;20030;-50
2022/02/05 06:51:25;;;;;;;7.97;1.80;;;;;;;;;;4967233;28;20465;-52
2022/02/05 06:53:51;;;;;;;5.57;0.73;;;;;;;;;;4992602;28;20038;-52
2022/02/05 06:56:16;;;;;;;6.18;0.68;;;;;;;;;;4963377;28;20043;-49
2022/02/05 06:58:42;;;;;;;6.50;1.05;;;;;;;;;;4968808;28;20035;-53
2022/02/05 07:01:07;;;;;;;11.07;0.98;;;;;;;;;;4963794;28;20134;-53
2022/02/05 07:03:33;;;;;;;6.65;0.98;;;;;;;;;;4964583;28;20035;-49
2022/02/05 07:05:58;;;;;;;11.32;1.27;;;;;;;;;;4966654;28;20058;-50
2022/02/05 07:08:24;;;;;;;10.60;1.20;;;;;;;;;;4961970;28;20088;-53
2022/02/05 07:10:51;;;;;;;11.10;1.00;;;;;;;;;;4964964;28;20146;-52
2022/02/05 07:13:19;;;;;;;10.88;1.55;;;;;;;;;;4968543;28;20026;-53
2022/02/05 07:15:54;;;;;;;9.77;1.23;;;;;;;;;;4968150;28;20034;-53
2022/02/05 07:21:11;;;;;;;6.25;0.98;;;;;;;;;;4974315;28;20046;-54
2022/02/05 07:31:30;;;;;;;5.53;0.80;;;;;;;;;;4967137;28;20086;-54
2022/02/05 07:33:55;;;;;;;9.15;1.35;;;;;;;;;;4963168;28;20438;-53
2022/02/05 07:36:21;;;;;;;11.20;0.95;;;;;;;;;;4965491;28;20027;-53
2022/02/05 07:38:47;;;;;;;4.70;0.85;;;;;;;;;;4965835;28;20054;-50
2022/02/05 07:41:13;;;;;;;9.00;1.17;;;;;;;;;;4967245;28;20597;-50
2022/02/05 07:43:38;;;;;;;16.60;1.02;;;;;;;;;;4966485;28;20037;-50
2022/02/05 07:46:11;;;;;;;10.40;1.23;;;;;;;;;;4961771;28;20101;-51
2022/02/05 07:48:37;;;;;;;4.50;0.95;;;;;;;;;;4961226;28;20038;-50
2022/02/05 07:51:03;;;;;;;8.90;1.10;;;;;;;;;;4964747;28;20114;-52
2022/02/05 07:53:30;;;;;;;8.52;1.05;;;;;;;;;;4964604;28;20303;-50
2022/02/05 07:55:56;;;;;;;7.90;1.48;;;;;;;;;;4963477;28;20085;-49
2022/02/05 07:58:22;;;;;;;6.55;1.05;;;;;;;;;;4963688;28;20035;-49
2022/02/05 08:00:48;;;;;;;4.95;1.05;;;;;;;;;;4962000;28;20552;-50
2022/02/05 08:03:14;;;;;;;8.98;0.80;;;;;;;;;;4959122;28;20126;-53
2022/02/05 08:05:39;;;;;;;7.47;1.13;;;;;;;;;;4959925;28;20130;-56
2022/02/05 08:08:09;;;;;;;5.75;1.02;;;;;;;;;;4964951;28;20117;-54
2022/02/05 08:10:38;;;;;;;14.93;2.25;;;;;;;;;;4959774;28;20100;-52
2022/02/05 08:13:04;;;;;;;8.75;1.83;;;;;;;;;;4963697;28;20422;-53
2022/02/05 08:15:31;;;;;;;9.10;1.17;;;;;;;;;;4963733;28;20053;-52
2022/02/05 08:17:58;;;;;;;10.32;1.38;;;;;;;;;;4966428;28;20375;-49
2022/02/05 08:20:24;;;;;;;10.68;1.08;;;;;;;;;;4960548;28;20112;-51
2022/02/05 08:22:50;;;;;;;8.10;1.20;;;;;;;;;;4963892;28;20038;-53
2022/02/05 08:25:17;;;;;;;20.00;2.35;;;;;;;;;;4962361;28;20035;-54
2022/02/05 08:27:43;;;;;;;7.88;1.55;;;;;;;;;;4965594;28;20430;-54
2022/02/05 08:30:11;;;;;;;8.43;1.20;;;;;;;;;;4964450;28;20053;-54
2022/02/05 08:32:37;;;;;;;11.13;2.42;;;;;;;;;;4960452;28;20065;-54
2022/02/05 08:35:05;;;;;;;8.52;1.73;;;;;;;;;;4963181;28;20062;-54
2022/02/05 08:37:35;;;;;;;3.25;0.77;;;;;;;;;;4958841;28;20109;-53
2022/02/05 08:40:01;;;;;;;9.52;1.13;;;;;;;;;;4961636;28;20059;-50
2022/02/05 08:42:27;;;;;;;15.73;1.45;;;;;;;;;;4963657;28;20030;-52
2022/02/05 08:44:54;;;;;;;14.05;1.77;;;;;;;;;;4959552;28;20581;-51
2022/02/05 08:47:20;;;;;;;8.52;1.80;;;;;;;;;;4960967;28;20039;-50
2022/02/05 08:49:45;;;;;;;8.90;1.08;;;;;;;;;;4964249;28;20019;-51
2022/02/05 08:52:11;;;;;;;6.20;0.90;;;;;;;;;;4967725;28;20100;-49
2022/02/05 08:54:38;;;;;;;11.48;1.45;;;;;;;;;;4964248;28;20062;-50
2022/02/05 08:57:07;;;;;;;15.98;2.33;;;;;;;;;;4961961;28;20676;-53
2022/02/05 08:59:44;;;;;;;18.73;1.98;;;;;;;;;;4993374;28;20027;-52
2022/02/05 09:02:17;;;;;;;17.70;1.45;;;;;;;;;;4963305;28;20173;-53
2022/02/05 09:07:11;;;;;;;13.55;1.50;;;;;;;;;;4961969;28;20035;-52
2022/02/05 09:10:02;;;;;;;10.32;2.22;;;;;;;;;;4956558;28;20034;-53
2022/02/05 09:15:05;;;;;;;10.95;1.85;;;;;;;;;;4988852;28;20450;-51
2022/02/05 09:17:31;;;;;;;16.27;1.75;;;;;;;;;;4958065;28;20395;-52
2022/02/05 09:19:57;;;;;;;22.70;2.28;;;;;;;;;;4960964;28;20038;-53
2022/02/05 09:22:22;;;;;;;7.68;1.10;;;;;;;;;;4965752;28;20042;-53
2022/02/05 09:24:48;;;;;;;16.63;2.20;;;;;;;;;;4961649;28;20030;-54
2022/02/05 09:27:15;;;;;;;9.55;1.45;;;;;;;;;;4958703;28;20150;-53
2022/02/05 09:30:00;;;;;;;28.27;1.73;;;;;;;;;;4965571;28;20030;-53
2022/02/05 09:32:27;;;;;;;9.40;1.48;;;;;;;;;;4967785;28;20572;-53
2022/02/05 09:34:53;;;;;;;12.07;2.03;;;;;;;;;;4963728;28;20092;-53
2022/02/05 09:37:19;;;;;;;15.02;1.80;;;;;;;;;;4962022;28;20065;-51
2022/02/05 09:39:45;;;;;;;17.45;2.55;;;;;;;;;;4962509;28;20510;-50
2022/02/05 09:42:12;;;;;;;17.63;2.22;;;;;;;;;;4987046;28;20027;-52
2022/02/05 09:44:37;;;;;;;13.30;2.22;;;;;;;;;;4961823;28;20126;-52
2022/02/05 09:47:04;;;;;;;27.88;3.63;;;;;;;;;;4960635;28;20260;-53
2022/02/05 09:49:30;;;;;;;19.70;1.92;;;;;;;;;;4962209;28;20042;-52
2022/02/05 09:52:07;;;;;;;20.55;1.95;;;;;;;;;;4960657;28;20047;-51
2022/02/05 09:54:35;;;;;;;21.02;2.70;;;;;;;;;;4963878;28;20458;-53
2022/02/05 09:57:00;;;;;;;22.98;1.83;;;;;;;;;;4960275;28;20089;-53
2022/02/05 09:59:26;;;;;;;20.25;2.40;;;;;;;;;;4961737;28;20027;-51
2022/02/05 10:02:20;;;;;;;22.67;2.72;;;;;;;;;;4964782;28;20118;-53
2022/02/05 10:05:02;;;;;;;15.25;2.25;;;;;;;;;;4961249;28;20386;-51
2022/02/05 10:07:29;;;;;;;26.92;2.83;;;;;;;;;;4966314;28;20410;-54
2022/02/05 10:10:00;;;;;;;25.13;3.25;;;;;;;;;;4965285;28;20323;-50
2022/02/05 10:12:26;;;;;;;19.60;3.22;;;;;;;;;;4966964;28;20390;-50
2022/02/05 10:14:55;;;;;;;27.00;1.88;;;;;;;;;;4967673;28;20027;-50
2022/02/05 10:17:45;;;;;;;19.88;2.70;;;;;;;;;;4967164;28;20030;-53
2022/02/05 10:20:13;;;;;;;33.60;4.72;;;;;;;;;;4963443;28;20089;-52
2022/02/05 10:22:44;;;;;;;25.83;2.53;;;;;;;;;;4968750;28;20362;-54
2022/02/05 10:25:23;;;;;;;16.63;2.78;;;;;;;;;;4967564;28;20058;-53
2022/02/05 10:27:50;;;;;;;44.17;4.38;;;;;;;;;;4967672;28;20388;-54
2022/02/05 10:30:25;;;;;;;24.80;3.30;;;;;;;;;;4969058;28;20058;-54
2022/02/05 10:33:00;;;;;;;26.40;3.50;;;;;;;;;;4969649;28;20031;-53
2022/02/05 10:35:36;;;;;;;30.33;3.03;;;;;;;;;;4962620;28;20363;-54
2022/02/05 10:40:43;;;;;;;32.03;2.80;;;;;;;;;;4967877;28;20050;-53
2022/02/05 10:43:11;;;;;;;26.00;2.92;;;;;;;;;;4963431;28;20141;-53
2022/02/05 10:45:51;;;;;;;26.38;2.53;;;;;;;;;;4968386;28;20018;-52
2022/02/05 10:48:22;;;;;;;37.33;4.18;;;;;;;;;;4965448;28;20031;-51
2022/02/05 10:50:50;;;;;;;26.75;2.70;;;;;;;;;;4967634;28;20031;-52
2022/02/05 10:53:50;;;;;;;34.67;3.25;;;;;;;;;;4965015;28;20394;-53
2022/02/05 11:06:54;;;;;;;27.50;3.35;;;;;;;;;;4959761;28;20037;-54
2022/02/05 11:09:22;;;;;;;27.48;2.60;;;;;;;;;;4993972;28;20101;-50
2022/02/05 11:18:00;;;;;;;24.25;3.10;;;;;;;;;;4962641;28;20049;-52
2022/02/05 11:20:17;;;;;;;28.20;3.20;;;;;;;;;;4965632;28;20465;-53
2022/02/05 11:23:05;;;;;;;20.05;2.00;;;;;;;;;;4966454;28;20031;-55
2022/02/05 11:25:38;;;;;;;20.05;2.72;;;;;;;;;;4964721;28;20038;-53
2022/02/05 11:28:06;;;;;;;32.35;3.08;;;;;;;;;;4965095;28;20049;-55
2022/02/05 11:30:43;;;;;;;50.20;2.67;;;;;;;;;;4965531;28;20524;-55
2022/02/05 11:33:23;;;;;;;23.10;3.35;;;;;;;;;;4966235;28;20114;-54
2022/02/05 11:38:38;;;;;;;33.85;4.45;;;;;;;;;;4963211;28;20051;-54
2022/02/05 11:41:06;;;;;;;26.75;3.83;;;;;;;;;;4965400;28;20104;-51
2022/02/05 11:43:34;;;;;;;30.13;3.90;;;;;;;;;;4961660;28;20371;-53
2022/02/05 11:46:18;;;;;;;23.50;3.00;;;;;;;;;;4967885;28;20410;-56
2022/02/05 11:48:47;;;;;;;24.10;3.10;;;;;;;;;;4995426;28;20045;-54
2022/02/05 11:51:21;;;;;;;26.77;3.08;;;;;;;;;;4967309;28;20019;-53
2022/02/05 11:53:56;;;;;;;32.35;4.65;;;;;;;;;;4965985;28;20034;-54
2022/02/05 11:56:48;;;;;;;30.08;3.15;;;;;;;;;;4967250;28;20027;-55
2022/02/05 11:59:14;;;;;;;32.20;3.55;;;;;;;;;;4961247;28;20124;-52
2022/02/05 12:01:40;;;;;;;16.90;2.60;;;;;;;;;;4966749;28;20050;-53
2022/02/05 12:04:18;;;;;;;23.15;2.75;;;;;;;;;;4964771;28;20524;-55
2022/02/05 12:06:58;;;;;;;12.63;2.10;;;;;;;;;;4967183;28;20038;-52
2022/02/05 12:09:43;;;;;;;24.23;2.88;;;;;;;;;;4963503;28;20123;-56
2022/02/05 12:12:34;;;;;;;26.55;3.05;;;;;;;;;;4966248;28;20039;-55
2022/02/05 12:15:15;;;;;;;29.05;3.83;;;;;;;;;;4967394;28;20113;-54
2022/02/05 12:20:51;;;;;;;27.50;3.67;;;;;;;;;;4967345;28;20027;-56
2022/02/05 12:23:30;;;;;;;22.70;4.88;;;;;;;;;;4965057;28;20034;-54
2022/02/05 12:25:59;;;;;;;27.05;2.53;;;;;;;;;;4966294;28;20069;-55
2022/02/05 12:28:36;;;;;;;23.55;3.05;;;;;;;;;;4962332;28;20054;-54
2022/02/05 12:31:05;;;;;;;23.35;3.88;;;;;;;;;;4966582;28;20386;-54
2022/02/05 12:34:13;;;;;;;28.20;3.40;;;;;;;;;;4962357;28;20383;-54
2022/02/05 12:36:51;;;;;;;11.93;2.13;;;;;;;;;;4960524;28;20423;-52
2022/02/05 12:39:27;;;;;;;19.60;2.88;;;;;;;;;;4963613;28;20063;-55
2022/02/05 12:41:53;;;;;;;18.85;2.53;;;;;;;;;;4964505;28;20402;-54
2022/02/05 12:44:20;;;;;;;43.03;6.43;;;;;;;;;;4964803;28;20498;-55
2022/02/05 12:46:56;;;;;;;26.85;3.58;;;;;;;;;;4966033;28;20030;-54
2022/02/05 12:49:28;;;;;;;23.67;2.83;;;;;;;;;;4964492;28;20023;-55
2022/02/05 12:51:56;;;;;;;17.73;2.83;;;;;;;;;;4966886;28;20034;-55
2022/02/05 12:54:25;;;;;;;19.23;2.30;;;;;;;;;;4965857;28;20421;-53
2022/02/05 12:56:53;;;;;;;22.25;3.15;;;;;;;;;;4960729;28;20041;-55
2022/02/05 12:59:27;;;;;;;16.33;3.00;;;;;;;;;;4963384;28;20470;-55
2022/02/05 13:02:12;;;;;;;18.17;2.22;;;;;;;;;;4961790;28;20032;-54
2022/02/05 13:04:42;;;;;;;17.50;2.22;;;;;;;;;;4963671;28;20841;-53
2022/02/05 13:07:10;;;;;;;20.58;1.85;;;;;;;;;;4959679;28;20034;-55
2022/02/05 13:09:44;;;;;;;26.60;3.95;;;;;;;;;;4963768;28;20486;-54
2022/02/05 13:12:11;;;;;;;10.35;1.95;;;;;;;;;;4965351;28;20042;-55
2022/02/05 13:14:47;;;;;;;25.77;2.67;;;;;;;;;;4961526;28;20033;-53
2022/02/05 13:36:39;;;;;;;18.65;2.53;;;;;;;;;;4962275;28;20742;-51
2022/02/05 13:41:57;;;;;;;24.45;2.63;;;;;;;;;;4966105;28;20038;-52
2022/02/05 13:44:26;;;;;;;13.18;2.72;;;;;;;;;;4969413;28;20484;-52
2022/02/05 13:47:06;;;;;;;15.45;2.33;;;;;;;;;;4971814;28;20034;-51
2022/02/05 13:49:33;;;;;;;15.95;2.03;;;;;;;;;;4971189;28;20030;-53
2022/02/05 13:52:11;;;;;;;15.48;2.75;;;;;;;;;;4971303;28;20034;-50
2022/02/05 13:54:39;;;;;;;12.18;1.73;;;;;;;;;;5000817;28;20054;-50
2022/02/05 13:57:05;;;;;;;12.48;1.88;;;;;;;;;;4967379;28;20026;-52
2022/02/05 13:59:34;;;;;;;18.95;2.42;;;;;;;;;;4966846;28;20042;-51
2022/02/05 14:02:19;;;;;;;18.27;2.10;;;;;;;;;;4966510;28;20283;-51
2022/02/05 14:05:11;;;;;;;13.10;2.28;;;;;;;;;;4967532;28;20162;-50
2022/02/05 14:07:47;;;;;;;27.92;2.25;;;;;;;;;;4970635;28;20038;-51
2022/02/05 14:10:15;;;;;;;23.02;2.47;;;;;;;;;;4965241;28;20121;-49
2022/02/05 14:12:55;;;;;;;26.92;2.85;;;;;;;;;;4967999;28;20018;-51
2022/02/05 14:15:23;;;;;;;15.68;2.30;;;;;;;;;;4973816;28;20170;-51
2022/02/05 14:18:06;;;;;;;16.65;2.40;;;;;;;;;;4968451;28;20441;-49
2022/02/05 14:20:37;;;;;;;13.75;1.85;;;;;;;;;;4969201;28;20253;-51
2022/02/05 14:23:08;;;;;;;12.77;2.22;;;;;;;;;;4969411;28;20067;-52
2022/02/05 14:25:46;;;;;;;21.60;1.90;;;;;;;;;;4969322;28;20583;-52
2022/02/05 14:28:16;;;;;;;15.60;1.67;;;;;;;;;;4967200;28;20564;-50
2022/02/05 14:30:55;;;;;;;7.95;1.27;;;;;;;;;;4971691;28;20458;-49
2022/02/05 14:33:22;;;;;;;18.70;2.38;;;;;;;;;;4971569;28;20019;-51
2022/02/05 14:41:16;;;;;;;14.15;1.90;;;;;;;;;;4969486;28;20124;-53
2022/02/05 14:43:42;;;;;;;13.65;1.65;;;;;;;;;;4966346;28;20514;-53
2022/02/05 14:46:08;;;;;;;13.32;1.38;;;;;;;;;;4970725;28;20071;-54
2022/02/05 14:48:33;;;;;;;19.75;2.60;;;;;;;;;;4963478;28;20042;-53
2022/02/05 14:51:00;;;;;;;18.05;2.55;;;;;;;;;;4974958;28;20031;-52
2022/02/05 14:53:26;;;;;;;16.27;2.13;;;;;;;;;;4971415;28;20552;-52
2022/02/05 14:55:51;;;;;;;12.27;2.35;;;;;;;;;;4970310;28;20031;-51
2022/02/05 14:58:17;;;;;;;19.83;2.22;;;;;;;;;;4967701;28;20031;-53
2022/02/05 15:00:42;;;;;;;13.98;2.40;;;;;;;;;;4998711;28;20935;-51
2022/02/05 15:03:14;;;;;;;8.05;1.42;;;;;;;;;;4967107;28;20037;-53
2022/02/05 15:05:41;;;;;;;19.73;2.73;;;;;;;;;;4966090;28;20047;-49
2022/02/05 15:08:07;;;;;;;14.88;1.98;;;;;;;;;;4964243;28;20031;-50
2022/02/05 15:10:32;;;;;;;15.10;1.95;;;;;;;;;;4963770;28;20478;-51
2022/02/05 15:12:58;;;;;;;18.48;2.70;;;;;;;;;;4967831;28;20034;-50
2022/02/05 15:15:26;;;;;;;14.90;2.35;;;;;;;;;;4964908;28;20043;-50
2022/02/05 15:17:51;;;;;;;14.35;2.42;;;;;;;;;;4965246;28;20030;-52
2022/02/05 15:20:22;;;;;;;14.02;1.95;;;;;;;;;;4966447;28;20034;-52
2022/02/05 15:22:49;;;;;;;18.48;2.72;;;;;;;;;;4994051;28;20034;-53
2022/02/05 15:25:15;;;;;;;19.67;3.78;;;;;;;;;;4966929;28;20054;-54
2022/02/05 15:27:42;;;;;;;22.13;3.60;;;;;;;;;;4967178;28;20031;-52
2022/02/05 15:30:09;;;;;;;18.27;3.15;;;;;;;;;;4966071;28;20491;-52
2022/02/05 15:32:34;;;;;;;21.27;2.40;;;;;;;;;;4964430;28;20501;-52
2022/02/05 15:35:00;;;;;;;19.83;3.35;;;;;;;;;;4969014;28;20053;-51
2022/02/05 15:37:26;;;;;;;24.35;2.80;;;;;;;;;;4996561;28;20046;-49
2022/02/05 15:40:12;;;;;;;17.13;3.22;;;;;;;;;;4967574;28;20062;-49
2022/02/05 15:45:22;;;;;;;23.02;3.50;;;;;;;;;;4966331;28;20105;-53
2022/02/05 15:47:48;;;;;;;18.60;3.13;;;;;;;;;;4993366;28;20043;-52
2022/02/05 15:50:13;;;;;;;28.08;4.03;;;;;;;;;;4966324;28;20437;-52
2022/02/05 15:52:39;;;;;;;12.65;2.00;;;;;;;;;;4964233;28;20054;-52
2022/02/05 15:55:06;;;;;;;11.60;2.40;;;;;;;;;;4961815;28;20046;-53
2022/02/05 15:57:47;;;;;;;23.52;2.92;;;;;;;;;;4965522;28;20046;-53
2022/02/05 16:02:41;;;;;;;18.50;2.25;;;;;;;;;;4964116;28;20490;-52
2022/02/05 16:05:07;;;;;;;24.65;3.65;;;;;;;;;;4967577;28;20038;-52
2022/02/05 16:07:33;;;;;;;7.38;1.92;;;;;;;;;;4962636;28;20117;-54
2022/02/05 16:09:58;;;;;;;15.80;2.35;;;;;;;;;;4965473;28;20587;-53
2022/02/05 16:12:24;;;;;;;32.30;2.78;;;;;;;;;;4965916;28;20030;-51
2022/02/05 16:14:49;;;;;;;31.98;3.35;;;;;;;;;;4966509;28;20041;-54
2022/02/05 16:17:15;;;;;;;26.27;3.78;;;;;;;;;;4965939;28;20038;-53
2022/02/05 16:19:40;;;;;;;19.08;2.35;;;;;;;;;;4964348;28;20039;-51
2022/02/05 16:22:06;;;;;;;17.55;3.25;;;;;;;;;;4970427;28;20039;-52
2022/02/05 16:24:32;;;;;;;21.30;3.40;;;;;;;;;;4969747;28;20250;-53
2022/02/05 16:26:58;;;;;;;19.98;2.53;;;;;;;;;;4960669;28;20065;-56
2022/02/05 16:29:27;;;;;;;17.10;2.85;;;;;;;;;;4959668;28;20130;-53
2022/02/05 16:31:58;;;;;;;9.73;1.85;;;;;;;;;;4956868;28;20403;-51
2022/02/05 16:34:25;;;;;;;12.00;2.28;;;;;;;;;;4961645;28;20096;-52
2022/02/05 16:36:51;;;;;;;13.50;2.45;;;;;;;;;;4964169;28;20556;-53
2022/02/05 16:39:24;;;;;;;16.00;2.67;;;;;;;;;;4961754;28;20046;-53
2022/02/05 16:41:50;;;;;;;24.67;3.28;;;;;;;;;;4961392;28;20151;-53
2022/02/05 16:44:15;;;;;;;21.35;2.63;;;;;;;;;;4961995;28;20397;-54
2022/02/05 16:46:42;;;;;;;18.95;2.03;;;;;;;;;;4959117;28;20085;-53
2022/02/05 16:49:08;;;;;;;22.27;2.90;;;;;;;;;;4962934;28;20030;-54
2022/02/05 16:51:35;;;;;;;17.00;2.42;;;;;;;;;;4963401;28;20109;-56
2022/02/05 16:54:03;;;;;;;21.55;3.70;;;;;;;;;;4959346;28;20030;-53
2022/02/05 16:56:31;;;;;;;23.40;2.92;;;;;;;;;;4965761;28;20446;-52
2022/02/05 16:58:57;;;;;;;17.05;2.55;;;;;;;;;;4964091;28;20394;-52
2022/02/05 17:01:27;;;;;;;28.55;3.72;;;;;;;;;;4952294;28;20031;-50
2022/02/05 17:03:52;;;;;;;19.85;3.15;;;;;;;;;;4993473;28;20031;-54
2022/02/05 17:06:18;;;;;;;21.80;2.95;;;;;;;;;;4964989;28;20387;-52
2022/02/05 17:08:44;;;;;;;16.17;3.17;;;;;;;;;;4962200;28;20058;-53
2022/02/05 17:11:11;;;;;;;14.38;2.90;;;;;;;;;;4962714;28;20117;-53
2022/02/05 17:13:40;;;;;;;14.57;2.60;;;;;;;;;;4959961;28;20033;-52
2022/02/05 17:16:05;;;;;;;17.83;3.03;;;;;;;;;;4964634;28;20065;-52
2022/02/05 17:18:32;;;;;;;20.85;3.67;;;;;;;;;;4965745;28;20064;-52
2022/02/05 17:20:57;;;;;;;23.05;2.60;;;;;;;;;;4965509;28;20422;-52
2022/02/05 17:23:31;;;;;;;21.48;3.60;;;;;;;;;;4994822;28;20031;-49
2022/02/05 17:25:59;;;;;;;13.18;3.08;;;;;;;;;;4964183;28;20157;-52
2022/02/05 17:28:26;;;;;;;18.73;2.75;;;;;;;;;;4963711;28;20051;-52
2022/02/05 17:30:53;;;;;;;36.50;4.68;;;;;;;;;;4955592;28;20090;-52
2022/02/05 17:33:19;;;;;;;29.60;4.35;;;;;;;;;;4958088;28;20027;-53
2022/02/05 17:35:46;;;;;;;20.63;3.53;;;;;;;;;;4960612;28;20038;-57
2022/02/05 17:38:20;;;;;;;26.85;4.05;;;;;;;;;;4987182;28;20438;-46
2022/02/05 17:40:47;;;;;;;31.90;3.85;;;;;;;;;;4964188;28;20576;-48
2022/02/05 17:43:13;;;;;;;28.75;4.18;;;;;;;;;;4959109;28;20125;-48
2022/02/05 17:45:38;;;;;;;22.58;2.65;;;;;;;;;;4963235;28;20034;-47
2022/02/05 17:48:04;;;;;;;36.72;4.25;;;;;;;;;;4959345;28;20031;-51
2022/02/05 17:50:31;;;;;;;25.85;3.03;;;;;;;;;;4954376;28;20035;-51
2022/02/05 17:52:57;;;;;;;30.50;3.60;;;;;;;;;;4956986;28;20649;-53
2022/02/05 17:55:23;;;;;;;18.98;3.38;;;;;;;;;;4964119;28;20117;-51
2022/02/05 17:57:52;;;;;;;29.05;3.50;;;;;;;;;;4959965;28;20520;-52
2022/02/05 18:00:20;;;;;;;28.38;4.50;;;;;;;;;;4960299;28;20110;-51
2022/02/05 18:02:46;;;;;;;30.13;4.88;;;;;;;;;;4961593;28;20449;-49
2022/02/05 18:05:15;;;;;;;26.88;4.30;;;;;;;;;;4958804;28;20039;-48